sensor_id;sensor_type;location;lat;lon;timestamp;P1;durP1;ratioP1;P2;durP2;ratioP2
58141;SDS011;53186;47.382;18.904;2022-07-06T00:01:24;6.80;;;5.40;;
58141;SDS011;53186;47.382;18.904;2022-07-06T00:03:51;7.75;;;5.43;;
58141;SDS011;53186;47.382;18.904;2022-07-06T00:06:21;6.22;;;4.93;;
58141;SDS011;53186;47.382;18.904;2022-07-06T00:08:49;6.45;;;5.65;;
58141;SDS011;53186;47.382;18.904;2022-07-06T00:11:17;9.98;;;5.82;;
58141;SDS011;53186;47.382;18.904;2022-07-06T00:13:44;8.90;;;5.87;;
58141;SDS011;53186;47.382;18.904;2022-07-06T00:16:11;6.78;;;5.22;;
58141;SDS011;53186;47.382;18.904;2022-07-06T00:18:39;7.47;;;6.20;;
58141;SDS011;53186;47.382;18.904;2022-07-06T00:21:06;6.65;;;5.40;;
58141;SDS011;53186;47.382;18.904;2022-07-06T00:23:33;6.57;;;5.68;;
58141;SDS011;53186;47.382;18.904;2022-07-06T00:26:01;7.53;;;5.43;;
58141;SDS011;53186;47.382;18.904;2022-07-06T00:28:28;6.80;;;5.68;;
58141;SDS011;53186;47.382;18.904;2022-07-06T00:30:56;7.85;;;5.47;;
58141;SDS011;53186;47.382;18.904;2022-07-06T00:33:24;5.80;;;5.15;;
58141;SDS011;53186;47.382;18.904;2022-07-06T00:35:51;10.70;;;5.57;;
58141;SDS011;53186;47.382;18.904;2022-07-06T00:38:18;7.65;;;5.60;;
58141;SDS011;53186;47.382;18.904;2022-07-06T00:40:46;7.70;;;5.87;;
58141;SDS011;53186;47.382;18.904;2022-07-06T00:43:13;6.93;;;5.55;;
58141;SDS011;53186;47.382;18.904;2022-07-06T00:45:40;7.43;;;5.43;;
58141;SDS011;53186;47.382;18.904;2022-07-06T00:48:08;8.15;;;5.82;;
58141;SDS011;53186;47.382;18.904;2022-07-06T00:50:35;8.43;;;5.90;;
58141;SDS011;53186;47.382;18.904;2022-07-06T00:53:03;8.00;;;5.87;;
58141;SDS011;53186;47.382;18.904;2022-07-06T00:55:32;6.82;;;6.00;;
58141;SDS011;53186;47.382;18.904;2022-07-06T00:58:02;6.95;;;5.87;;
58141;SDS011;53186;47.382;18.904;2022-07-06T01:00:30;6.60;;;5.50;;
58141;SDS011;53186;47.382;18.904;2022-07-06T01:02:58;9.20;;;6.03;;
58141;SDS011;53186;47.382;18.904;2022-07-06T01:05:26;7.30;;;5.93;;
58141;SDS011;53186;47.382;18.904;2022-07-06T01:07:53;7.80;;;5.32;;
58141;SDS011;53186;47.382;18.904;2022-07-06T01:10:21;6.53;;;5.75;;
58141;SDS011;53186;47.382;18.904;2022-07-06T01:12:48;6.57;;;5.47;;
58141;SDS011;53186;47.382;18.904;2022-07-06T01:15:17;7.15;;;5.45;;
58141;SDS011;53186;47.382;18.904;2022-07-06T01:17:47;6.97;;;5.10;;
58141;SDS011;53186;47.382;18.904;2022-07-06T01:20:17;6.28;;;5.32;;
58141;SDS011;53186;47.382;18.904;2022-07-06T01:22:50;5.70;;;5.07;;
58141;SDS011;53186;47.382;18.904;2022-07-06T01:25:18;5.72;;;5.10;;
58141;SDS011;53186;47.382;18.904;2022-07-06T01:27:46;6.93;;;4.78;;
58141;SDS011;53186;47.382;18.904;2022-07-06T01:30:16;6.97;;;5.43;;
58141;SDS011;53186;47.382;18.904;2022-07-06T01:32:45;6.30;;;5.45;;
58141;SDS011;53186;47.382;18.904;2022-07-06T01:35:15;6.47;;;5.18;;
58141;SDS011;53186;47.382;18.904;2022-07-06T01:37:42;7.12;;;5.15;;
58141;SDS011;53186;47.382;18.904;2022-07-06T01:40:11;7.20;;;5.10;;
58141;SDS011;53186;47.382;18.904;2022-07-06T01:42:39;6.85;;;5.45;;
58141;SDS011;53186;47.382;18.904;2022-07-06T01:45:06;6.53;;;5.37;;
58141;SDS011;53186;47.382;18.904;2022-07-06T01:47:34;7.03;;;5.30;;
58141;SDS011;53186;47.382;18.904;2022-07-06T01:50:04;5.22;;;4.68;;
58141;SDS011;53186;47.382;18.904;2022-07-06T01:52:34;5.85;;;5.03;;
58141;SDS011;53186;47.382;18.904;2022-07-06T01:55:02;5.32;;;4.82;;
58141;SDS011;53186;47.382;18.904;2022-07-06T01:57:30;7.40;;;4.93;;
58141;SDS011;53186;47.382;18.904;2022-07-06T01:59:57;6.00;;;4.97;;
58141;SDS011;53186;47.382;18.904;2022-07-06T02:02:25;7.55;;;5.47;;
58141;SDS011;53186;47.382;18.904;2022-07-06T02:04:52;9.50;;;5.80;;
58141;SDS011;53186;47.382;18.904;2022-07-06T02:07:21;6.07;;;5.47;;
58141;SDS011;53186;47.382;18.904;2022-07-06T02:09:48;7.50;;;6.20;;
58141;SDS011;53186;47.382;18.904;2022-07-06T02:12:15;7.75;;;5.57;;
58141;SDS011;53186;47.382;18.904;2022-07-06T02:14:42;7.22;;;6.20;;
58141;SDS011;53186;47.382;18.904;2022-07-06T02:17:09;10.13;;;6.37;;
58141;SDS011;53186;47.382;18.904;2022-07-06T02:19:37;11.55;;;7.28;;
58141;SDS011;53186;47.382;18.904;2022-07-06T02:22:04;9.95;;;6.57;;
58141;SDS011;53186;47.382;18.904;2022-07-06T02:24:31;9.40;;;6.18;;
58141;SDS011;53186;47.382;18.904;2022-07-06T02:26:59;9.30;;;6.55;;
58141;SDS011;53186;47.382;18.904;2022-07-06T02:29:26;8.52;;;5.97;;
58141;SDS011;53186;47.382;18.904;2022-07-06T02:31:54;8.18;;;5.75;;
58141;SDS011;53186;47.382;18.904;2022-07-06T02:34:21;10.57;;;6.80;;
58141;SDS011;53186;47.382;18.904;2022-07-06T02:36:49;9.15;;;6.85;;
58141;SDS011;53186;47.382;18.904;2022-07-06T02:39:16;10.60;;;6.80;;
58141;SDS011;53186;47.382;18.904;2022-07-06T02:41:44;8.98;;;6.68;;
58141;SDS011;53186;47.382;18.904;2022-07-06T02:44:11;10.00;;;5.90;;
58141;SDS011;53186;47.382;18.904;2022-07-06T02:46:39;9.73;;;6.12;;
58141;SDS011;53186;47.382;18.904;2022-07-06T02:49:06;8.85;;;6.75;;
58141;SDS011;53186;47.382;18.904;2022-07-06T02:51:34;8.88;;;6.62;;
58141;SDS011;53186;47.382;18.904;2022-07-06T02:54:01;10.40;;;7.10;;
58141;SDS011;53186;47.382;18.904;2022-07-06T02:56:28;8.90;;;6.55;;
58141;SDS011;53186;47.382;18.904;2022-07-06T02:58:56;9.82;;;6.50;;
58141;SDS011;53186;47.382;18.904;2022-07-06T03:01:23;9.07;;;6.22;;
58141;SDS011;53186;47.382;18.904;2022-07-06T03:03:51;8.20;;;6.55;;
58141;SDS011;53186;47.382;18.904;2022-07-06T03:06:18;7.30;;;6.18;;
58141;SDS011;53186;47.382;18.904;2022-07-06T03:08:45;9.20;;;6.87;;
58141;SDS011;53186;47.382;18.904;2022-07-06T03:11:13;7.53;;;6.35;;
58141;SDS011;53186;47.382;18.904;2022-07-06T03:13:41;11.27;;;6.95;;
58141;SDS011;53186;47.382;18.904;2022-07-06T03:16:08;8.73;;;6.37;;
58141;SDS011;53186;47.382;18.904;2022-07-06T03:18:36;9.55;;;6.85;;
58141;SDS011;53186;47.382;18.904;2022-07-06T03:21:03;9.40;;;6.90;;
58141;SDS011;53186;47.382;18.904;2022-07-06T03:23:31;8.93;;;6.57;;
58141;SDS011;53186;47.382;18.904;2022-07-06T03:25:59;9.20;;;6.28;;
58141;SDS011;53186;47.382;18.904;2022-07-06T03:28:27;9.20;;;6.57;;
58141;SDS011;53186;47.382;18.904;2022-07-06T03:30:54;9.07;;;7.50;;
58141;SDS011;53186;47.382;18.904;2022-07-06T03:33:22;8.60;;;6.22;;
58141;SDS011;53186;47.382;18.904;2022-07-06T03:35:50;8.95;;;6.97;;
58141;SDS011;53186;47.382;18.904;2022-07-06T03:38:17;9.00;;;6.45;;
58141;SDS011;53186;47.382;18.904;2022-07-06T03:40:45;9.15;;;7.15;;
58141;SDS011;53186;47.382;18.904;2022-07-06T03:43:12;9.48;;;6.43;;
58141;SDS011;53186;47.382;18.904;2022-07-06T03:45:41;9.77;;;6.30;;
58141;SDS011;53186;47.382;18.904;2022-07-06T03:48:08;8.30;;;6.57;;
58141;SDS011;53186;47.382;18.904;2022-07-06T03:50:36;10.90;;;6.80;;
58141;SDS011;53186;47.382;18.904;2022-07-06T03:53:03;8.43;;;6.43;;
58141;SDS011;53186;47.382;18.904;2022-07-06T03:55:31;7.32;;;5.97;;
58141;SDS011;53186;47.382;18.904;2022-07-06T03:58:00;8.32;;;6.18;;
58141;SDS011;53186;47.382;18.904;2022-07-06T04:00:32;9.82;;;6.40;;
58141;SDS011;53186;47.382;18.904;2022-07-06T04:03:01;8.68;;;6.00;;
58141;SDS011;53186;47.382;18.904;2022-07-06T04:05:29;7.85;;;6.12;;
58141;SDS011;53186;47.382;18.904;2022-07-06T04:07:57;8.45;;;6.50;;
58141;SDS011;53186;47.382;18.904;2022-07-06T04:10:25;9.38;;;6.00;;
58141;SDS011;53186;47.382;18.904;2022-07-06T04:12:53;10.07;;;6.30;;
58141;SDS011;53186;47.382;18.904;2022-07-06T04:15:20;11.48;;;6.30;;
58141;SDS011;53186;47.382;18.904;2022-07-06T04:17:47;9.18;;;5.75;;
58141;SDS011;53186;47.382;18.904;2022-07-06T04:20:21;8.00;;;6.05;;
58141;SDS011;53186;47.382;18.904;2022-07-06T04:22:50;8.40;;;5.65;;
58141;SDS011;53186;47.382;18.904;2022-07-06T04:25:19;8.55;;;6.03;;
58141;SDS011;53186;47.382;18.904;2022-07-06T04:27:47;9.60;;;6.25;;
58141;SDS011;53186;47.382;18.904;2022-07-06T04:30:14;8.85;;;6.18;;
58141;SDS011;53186;47.382;18.904;2022-07-06T04:32:42;11.05;;;6.12;;
58141;SDS011;53186;47.382;18.904;2022-07-06T04:35:09;9.90;;;5.95;;
58141;SDS011;53186;47.382;18.904;2022-07-06T04:37:38;8.25;;;5.85;;
58141;SDS011;53186;47.382;18.904;2022-07-06T04:40:05;8.50;;;6.15;;
58141;SDS011;53186;47.382;18.904;2022-07-06T04:42:33;7.80;;;5.90;;
58141;SDS011;53186;47.382;18.904;2022-07-06T04:45:00;8.95;;;6.43;;
58141;SDS011;53186;47.382;18.904;2022-07-06T04:47:28;10.65;;;5.93;;
58141;SDS011;53186;47.382;18.904;2022-07-06T04:49:55;9.63;;;6.10;;
58141;SDS011;53186;47.382;18.904;2022-07-06T04:52:23;8.20;;;6.35;;
58141;SDS011;53186;47.382;18.904;2022-07-06T04:54:50;9.70;;;6.32;;
58141;SDS011;53186;47.382;18.904;2022-07-06T04:57:17;8.30;;;6.65;;
58141;SDS011;53186;47.382;18.904;2022-07-06T04:59:44;8.90;;;6.32;;
58141;SDS011;53186;47.382;18.904;2022-07-06T05:02:12;10.10;;;6.43;;
58141;SDS011;53186;47.382;18.904;2022-07-06T05:04:40;8.45;;;6.28;;
58141;SDS011;53186;47.382;18.904;2022-07-06T05:07:07;11.65;;;7.03;;
58141;SDS011;53186;47.382;18.904;2022-07-06T05:09:34;10.95;;;6.60;;
58141;SDS011;53186;47.382;18.904;2022-07-06T05:12:02;10.00;;;6.40;;
58141;SDS011;53186;47.382;18.904;2022-07-06T05:14:30;8.30;;;6.15;;
58141;SDS011;53186;47.382;18.904;2022-07-06T05:16:57;10.02;;;6.87;;
58141;SDS011;53186;47.382;18.904;2022-07-06T05:19:24;9.98;;;6.37;;
58141;SDS011;53186;47.382;18.904;2022-07-06T05:21:52;12.48;;;7.50;;
58141;SDS011;53186;47.382;18.904;2022-07-06T05:24:19;10.57;;;6.68;;
58141;SDS011;53186;47.382;18.904;2022-07-06T05:26:46;8.93;;;7.12;;
58141;SDS011;53186;47.382;18.904;2022-07-06T05:29:15;12.93;;;6.57;;
58141;SDS011;53186;47.382;18.904;2022-07-06T05:31:43;8.68;;;6.70;;
58141;SDS011;53186;47.382;18.904;2022-07-06T05:34:10;8.60;;;6.47;;
58141;SDS011;53186;47.382;18.904;2022-07-06T05:36:39;9.38;;;6.70;;
58141;SDS011;53186;47.382;18.904;2022-07-06T05:39:06;11.93;;;6.60;;
58141;SDS011;53186;47.382;18.904;2022-07-06T05:41:33;9.10;;;5.93;;
58141;SDS011;53186;47.382;18.904;2022-07-06T05:44:02;8.88;;;6.43;;
58141;SDS011;53186;47.382;18.904;2022-07-06T05:46:29;9.25;;;6.93;;
58141;SDS011;53186;47.382;18.904;2022-07-06T05:48:57;10.48;;;6.90;;
58141;SDS011;53186;47.382;18.904;2022-07-06T05:51:43;7.87;;;6.80;;
58141;SDS011;53186;47.382;18.904;2022-07-06T05:54:10;9.40;;;6.57;;
58141;SDS011;53186;47.382;18.904;2022-07-06T05:56:37;8.90;;;6.53;;
58141;SDS011;53186;47.382;18.904;2022-07-06T05:59:05;13.43;;;6.65;;
58141;SDS011;53186;47.382;18.904;2022-07-06T06:01:32;10.30;;;6.25;;
58141;SDS011;53186;47.382;18.904;2022-07-06T06:04:00;8.90;;;6.65;;
58141;SDS011;53186;47.382;18.904;2022-07-06T06:06:28;9.65;;;6.87;;
58141;SDS011;53186;47.382;18.904;2022-07-06T06:08:58;8.18;;;6.25;;
58141;SDS011;53186;47.382;18.904;2022-07-06T06:11:25;9.80;;;7.10;;
58141;SDS011;53186;47.382;18.904;2022-07-06T06:13:53;10.07;;;6.53;;
58141;SDS011;53186;47.382;18.904;2022-07-06T06:16:20;8.23;;;6.35;;
58141;SDS011;53186;47.382;18.904;2022-07-06T06:18:49;10.20;;;7.18;;
58141;SDS011;53186;47.382;18.904;2022-07-06T06:21:16;11.30;;;7.18;;
58141;SDS011;53186;47.382;18.904;2022-07-06T06:23:43;13.27;;;6.60;;
58141;SDS011;53186;47.382;18.904;2022-07-06T06:26:10;9.13;;;6.50;;
58141;SDS011;53186;47.382;18.904;2022-07-06T06:28:38;8.18;;;6.03;;
58141;SDS011;53186;47.382;18.904;2022-07-06T06:31:05;12.95;;;7.35;;
58141;SDS011;53186;47.382;18.904;2022-07-06T06:33:33;11.75;;;5.65;;
58141;SDS011;53186;47.382;18.904;2022-07-06T06:36:00;9.48;;;6.40;;
58141;SDS011;53186;47.382;18.904;2022-07-06T06:38:27;9.57;;;6.10;;
58141;SDS011;53186;47.382;18.904;2022-07-06T06:40:56;8.15;;;5.97;;
58141;SDS011;53186;47.382;18.904;2022-07-06T06:43:24;14.68;;;6.50;;
58141;SDS011;53186;47.382;18.904;2022-07-06T06:45:53;8.25;;;6.53;;
58141;SDS011;53186;47.382;18.904;2022-07-06T06:48:21;8.07;;;6.30;;
58141;SDS011;53186;47.382;18.904;2022-07-06T06:50:48;10.32;;;6.45;;
58141;SDS011;53186;47.382;18.904;2022-07-06T06:53:15;9.13;;;6.45;;
58141;SDS011;53186;47.382;18.904;2022-07-06T06:55:43;8.40;;;6.35;;
58141;SDS011;53186;47.382;18.904;2022-07-06T06:58:10;8.60;;;6.28;;
58141;SDS011;53186;47.382;18.904;2022-07-06T07:00:37;7.43;;;6.20;;
58141;SDS011;53186;47.382;18.904;2022-07-06T07:03:05;9.23;;;6.55;;
58141;SDS011;53186;47.382;18.904;2022-07-06T07:05:32;9.98;;;6.72;;
58141;SDS011;53186;47.382;18.904;2022-07-06T07:07:59;8.65;;;5.90;;
58141;SDS011;53186;47.382;18.904;2022-07-06T07:10:31;7.57;;;5.60;;
58141;SDS011;53186;47.382;18.904;2022-07-06T07:12:59;8.57;;;6.25;;
58141;SDS011;53186;47.382;18.904;2022-07-06T07:15:26;7.80;;;5.72;;
58141;SDS011;53186;47.382;18.904;2022-07-06T07:17:54;6.65;;;5.53;;
58141;SDS011;53186;47.382;18.904;2022-07-06T07:20:21;7.87;;;5.57;;
58141;SDS011;53186;47.382;18.904;2022-07-06T07:22:48;6.62;;;5.32;;
58141;SDS011;53186;47.382;18.904;2022-07-06T07:25:16;8.25;;;5.50;;
58141;SDS011;53186;47.382;18.904;2022-07-06T07:27:43;5.95;;;5.28;;
58141;SDS011;53186;47.382;18.904;2022-07-06T07:30:10;9.07;;;5.35;;
58141;SDS011;53186;47.382;18.904;2022-07-06T07:32:38;7.55;;;4.62;;
58141;SDS011;53186;47.382;18.904;2022-07-06T07:35:07;6.03;;;4.95;;
58141;SDS011;53186;47.382;18.904;2022-07-06T07:37:34;7.97;;;5.03;;
58141;SDS011;53186;47.382;18.904;2022-07-06T07:40:02;6.30;;;4.70;;
58141;SDS011;53186;47.382;18.904;2022-07-06T07:42:31;7.55;;;4.85;;
58141;SDS011;53186;47.382;18.904;2022-07-06T07:44:59;6.72;;;4.47;;
58141;SDS011;53186;47.382;18.904;2022-07-06T07:47:26;10.32;;;4.85;;
58141;SDS011;53186;47.382;18.904;2022-07-06T07:49:53;6.90;;;4.20;;
58141;SDS011;53186;47.382;18.904;2022-07-06T07:52:21;5.57;;;4.80;;
58141;SDS011;53186;47.382;18.904;2022-07-06T07:54:48;6.22;;;4.47;;
58141;SDS011;53186;47.382;18.904;2022-07-06T07:57:33;6.37;;;4.25;;
58141;SDS011;53186;47.382;18.904;2022-07-06T08:00:01;5.18;;;4.53;;
58141;SDS011;53186;47.382;18.904;2022-07-06T08:02:36;8.73;;;4.57;;
58141;SDS011;53186;47.382;18.904;2022-07-06T08:05:04;6.75;;;4.40;;
58141;SDS011;53186;47.382;18.904;2022-07-06T08:07:32;5.80;;;3.78;;
58141;SDS011;53186;47.382;18.904;2022-07-06T08:09:59;7.72;;;4.70;;
58141;SDS011;53186;47.382;18.904;2022-07-06T08:12:26;6.55;;;4.68;;
58141;SDS011;53186;47.382;18.904;2022-07-06T08:14:54;5.12;;;4.60;;
58141;SDS011;53186;47.382;18.904;2022-07-06T08:17:22;6.75;;;4.80;;
58141;SDS011;53186;47.382;18.904;2022-07-06T08:19:50;7.80;;;5.35;;
58141;SDS011;53186;47.382;18.904;2022-07-06T08:22:17;9.90;;;4.35;;
58141;SDS011;53186;47.382;18.904;2022-07-06T08:24:44;6.87;;;4.55;;
58141;SDS011;53186;47.382;18.904;2022-07-06T08:27:11;5.43;;;4.50;;
58141;SDS011;53186;47.382;18.904;2022-07-06T08:29:39;7.45;;;4.62;;
58141;SDS011;53186;47.382;18.904;2022-07-06T08:32:06;5.50;;;4.30;;
58141;SDS011;53186;47.382;18.904;2022-07-06T08:34:44;5.37;;;4.10;;
58141;SDS011;53186;47.382;18.904;2022-07-06T08:37:11;5.50;;;3.92;;
58141;SDS011;53186;47.382;18.904;2022-07-06T08:39:39;5.20;;;4.03;;
58141;SDS011;53186;47.382;18.904;2022-07-06T08:42:07;5.22;;;4.00;;
58141;SDS011;53186;47.382;18.904;2022-07-06T08:44:35;7.87;;;4.40;;
58141;SDS011;53186;47.382;18.904;2022-07-06T08:47:06;6.10;;;4.50;;
58141;SDS011;53186;47.382;18.904;2022-07-06T08:49:35;4.72;;;4.22;;
58141;SDS011;53186;47.382;18.904;2022-07-06T08:52:03;9.77;;;4.53;;
58141;SDS011;53186;47.382;18.904;2022-07-06T08:54:31;5.35;;;4.28;;
58141;SDS011;53186;47.382;18.904;2022-07-06T08:56:59;6.85;;;4.35;;
58141;SDS011;53186;47.382;18.904;2022-07-06T08:59:26;5.28;;;4.10;;
58141;SDS011;53186;47.382;18.904;2022-07-06T09:01:54;5.28;;;4.32;;
58141;SDS011;53186;47.382;18.904;2022-07-06T09:04:22;6.50;;;4.20;;
58141;SDS011;53186;47.382;18.904;2022-07-06T09:06:49;6.05;;;4.95;;
58141;SDS011;53186;47.382;18.904;2022-07-06T09:09:20;5.40;;;4.00;;
58141;SDS011;53186;47.382;18.904;2022-07-06T09:11:48;7.20;;;4.65;;
58141;SDS011;53186;47.382;18.904;2022-07-06T09:14:16;6.32;;;4.40;;
58141;SDS011;53186;47.382;18.904;2022-07-06T09:16:46;6.97;;;4.82;;
58141;SDS011;53186;47.382;18.904;2022-07-06T09:19:16;6.45;;;4.07;;
58141;SDS011;53186;47.382;18.904;2022-07-06T09:21:43;7.30;;;4.90;;
58141;SDS011;53186;47.382;18.904;2022-07-06T09:24:11;7.62;;;4.47;;
58141;SDS011;53186;47.382;18.904;2022-07-06T09:26:40;6.57;;;4.50;;
58141;SDS011;53186;47.382;18.904;2022-07-06T09:29:08;9.88;;;4.72;;
58141;SDS011;53186;47.382;18.904;2022-07-06T09:31:35;6.40;;;4.68;;
58141;SDS011;53186;47.382;18.904;2022-07-06T09:34:04;5.20;;;3.90;;
58141;SDS011;53186;47.382;18.904;2022-07-06T09:36:46;6.20;;;4.28;;
58141;SDS011;53186;47.382;18.904;2022-07-06T09:41:44;5.22;;;3.87;;
58141;SDS011;53186;47.382;18.904;2022-07-06T09:44:12;6.78;;;4.12;;
58141;SDS011;53186;47.382;18.904;2022-07-06T09:46:40;6.12;;;4.35;;
58141;SDS011;53186;47.382;18.904;2022-07-06T09:49:08;8.60;;;4.30;;
58141;SDS011;53186;47.382;18.904;2022-07-06T09:51:36;7.68;;;3.78;;
58141;SDS011;53186;47.382;18.904;2022-07-06T09:54:08;4.97;;;4.28;;
58141;SDS011;53186;47.382;18.904;2022-07-06T09:59:09;4.80;;;3.85;;
58141;SDS011;53186;47.382;18.904;2022-07-06T10:01:38;6.28;;;4.30;;
58141;SDS011;53186;47.382;18.904;2022-07-06T10:04:07;4.40;;;4.00;;
58141;SDS011;53186;47.382;18.904;2022-07-06T10:06:35;4.60;;;4.07;;
58141;SDS011;53186;47.382;18.904;2022-07-06T10:09:05;5.75;;;4.47;;
58141;SDS011;53186;47.382;18.904;2022-07-06T10:11:40;5.57;;;3.92;;
58141;SDS011;53186;47.382;18.904;2022-07-06T10:14:09;4.97;;;3.30;;
58141;SDS011;53186;47.382;18.904;2022-07-06T10:16:37;5.70;;;3.42;;
58141;SDS011;53186;47.382;18.904;2022-07-06T10:19:06;5.03;;;3.40;;
58141;SDS011;53186;47.382;18.904;2022-07-06T10:21:38;5.32;;;3.35;;
58141;SDS011;53186;47.382;18.904;2022-07-06T10:24:06;5.78;;;3.50;;
58141;SDS011;53186;47.382;18.904;2022-07-06T10:26:35;4.57;;;3.45;;
58141;SDS011;53186;47.382;18.904;2022-07-06T10:29:03;6.75;;;3.33;;
58141;SDS011;53186;47.382;18.904;2022-07-06T10:31:31;4.35;;;3.37;;
58141;SDS011;53186;47.382;18.904;2022-07-06T10:34:00;6.15;;;3.60;;
58141;SDS011;53186;47.382;18.904;2022-07-06T10:36:29;8.93;;;3.30;;
58141;SDS011;53186;47.382;18.904;2022-07-06T10:38:56;4.80;;;3.62;;
58141;SDS011;53186;47.382;18.904;2022-07-06T10:41:31;6.97;;;4.03;;
58141;SDS011;53186;47.382;18.904;2022-07-06T10:44:14;5.47;;;3.47;;
58141;SDS011;53186;47.382;18.904;2022-07-06T10:46:54;3.62;;;3.10;;
58141;SDS011;53186;47.382;18.904;2022-07-06T10:49:22;4.85;;;3.30;;
58141;SDS011;53186;47.382;18.904;2022-07-06T10:52:10;10.27;;;3.33;;
58141;SDS011;53186;47.382;18.904;2022-07-06T10:54:41;4.07;;;3.08;;
58141;SDS011;53186;47.382;18.904;2022-07-06T10:57:10;3.92;;;2.90;;
58141;SDS011;53186;47.382;18.904;2022-07-06T10:59:40;6.57;;;2.83;;
58141;SDS011;53186;47.382;18.904;2022-07-06T11:02:17;4.93;;;3.00;;
58141;SDS011;53186;47.382;18.904;2022-07-06T11:04:46;6.00;;;3.30;;
58141;SDS011;53186;47.382;18.904;2022-07-06T11:07:17;4.90;;;2.97;;
58141;SDS011;53186;47.382;18.904;2022-07-06T11:09:53;4.82;;;2.80;;
58141;SDS011;53186;47.382;18.904;2022-07-06T11:12:22;4.87;;;2.87;;
58141;SDS011;53186;47.382;18.904;2022-07-06T11:14:50;7.60;;;3.22;;
58141;SDS011;53186;47.382;18.904;2022-07-06T11:17:18;3.80;;;2.95;;
58141;SDS011;53186;47.382;18.904;2022-07-06T11:19:55;3.87;;;2.85;;
58141;SDS011;53186;47.382;18.904;2022-07-06T11:22:24;3.53;;;3.10;;
58141;SDS011;53186;47.382;18.904;2022-07-06T11:24:51;3.65;;;2.78;;
58141;SDS011;53186;47.382;18.904;2022-07-06T11:27:19;7.35;;;2.78;;
58141;SDS011;53186;47.382;18.904;2022-07-06T11:29:49;3.50;;;3.20;;
58141;SDS011;53186;47.382;18.904;2022-07-06T11:32:20;5.22;;;2.55;;
58141;SDS011;53186;47.382;18.904;2022-07-06T11:34:50;3.78;;;3.00;;
58141;SDS011;53186;47.382;18.904;2022-07-06T11:37:18;5.55;;;3.30;;
58141;SDS011;53186;47.382;18.904;2022-07-06T11:39:46;3.75;;;2.90;;
58141;SDS011;53186;47.382;18.904;2022-07-06T11:42:15;10.45;;;3.22;;
58141;SDS011;53186;47.382;18.904;2022-07-06T11:44:43;5.93;;;3.00;;
58141;SDS011;53186;47.382;18.904;2022-07-06T11:47:12;3.62;;;3.17;;
58141;SDS011;53186;47.382;18.904;2022-07-06T11:49:41;5.55;;;3.20;;
58141;SDS011;53186;47.382;18.904;2022-07-06T11:52:09;6.00;;;3.62;;
58141;SDS011;53186;47.382;18.904;2022-07-06T11:54:38;4.35;;;2.65;;
58141;SDS011;53186;47.382;18.904;2022-07-06T11:57:10;2.75;;;2.50;;
58141;SDS011;53186;47.382;18.904;2022-07-06T11:59:38;4.55;;;2.60;;
58141;SDS011;53186;47.382;18.904;2022-07-06T12:02:08;5.32;;;2.90;;
58141;SDS011;53186;47.382;18.904;2022-07-06T12:04:42;3.15;;;2.42;;
58141;SDS011;53186;47.382;18.904;2022-07-06T12:07:12;6.43;;;3.30;;
58141;SDS011;53186;47.382;18.904;2022-07-06T12:09:41;8.30;;;2.70;;
58141;SDS011;53186;47.382;18.904;2022-07-06T12:12:09;6.62;;;3.53;;
58141;SDS011;53186;47.382;18.904;2022-07-06T12:14:37;3.08;;;2.60;;
58141;SDS011;53186;47.382;18.904;2022-07-06T12:17:06;4.15;;;2.50;;
58141;SDS011;53186;47.382;18.904;2022-07-06T12:19:42;3.67;;;2.65;;
58141;SDS011;53186;47.382;18.904;2022-07-06T12:22:09;6.12;;;2.70;;
58141;SDS011;53186;47.382;18.904;2022-07-06T12:24:37;4.22;;;2.70;;
58141;SDS011;53186;47.382;18.904;2022-07-06T12:27:14;5.43;;;2.65;;
58141;SDS011;53186;47.382;18.904;2022-07-06T12:29:43;3.60;;;2.60;;
58141;SDS011;53186;47.382;18.904;2022-07-06T12:32:18;4.22;;;2.83;;
58141;SDS011;53186;47.382;18.904;2022-07-06T12:35:03;3.03;;;2.50;;
58141;SDS011;53186;47.382;18.904;2022-07-06T12:37:35;5.05;;;2.47;;
58141;SDS011;53186;47.382;18.904;2022-07-06T12:40:04;3.22;;;2.40;;
58141;SDS011;53186;47.382;18.904;2022-07-06T12:42:45;11.65;;;3.58;;
58141;SDS011;53186;47.382;18.904;2022-07-06T12:45:14;7.85;;;2.58;;
58141;SDS011;53186;47.382;18.904;2022-07-06T12:47:48;6.62;;;2.55;;
58141;SDS011;53186;47.382;18.904;2022-07-06T12:50:30;3.58;;;2.60;;
58141;SDS011;53186;47.382;18.904;2022-07-06T12:53:05;5.12;;;2.75;;
58141;SDS011;53186;47.382;18.904;2022-07-06T12:55:33;7.53;;;2.75;;
58141;SDS011;53186;47.382;18.904;2022-07-06T12:58:00;6.03;;;2.35;;
58141;SDS011;53186;47.382;18.904;2022-07-06T13:00:27;6.53;;;2.72;;
58141;SDS011;53186;47.382;18.904;2022-07-06T13:02:55;2.78;;;1.90;;
58141;SDS011;53186;47.382;18.904;2022-07-06T13:05:38;3.58;;;2.12;;
58141;SDS011;53186;47.382;18.904;2022-07-06T13:08:06;3.78;;;2.08;;
58141;SDS011;53186;47.382;18.904;2022-07-06T13:10:33;3.55;;;2.28;;
58141;SDS011;53186;47.382;18.904;2022-07-06T13:13:02;5.07;;;2.60;;
58141;SDS011;53186;47.382;18.904;2022-07-06T13:15:30;4.93;;;2.00;;
58141;SDS011;53186;47.382;18.904;2022-07-06T13:17:57;3.90;;;2.20;;
58141;SDS011;53186;47.382;18.904;2022-07-06T13:20:24;5.85;;;2.58;;
58141;SDS011;53186;47.382;18.904;2022-07-06T13:22:51;3.40;;;2.50;;
58141;SDS011;53186;47.382;18.904;2022-07-06T13:25:18;3.35;;;2.45;;
58141;SDS011;53186;47.382;18.904;2022-07-06T13:27:46;3.20;;;2.10;;
58141;SDS011;53186;47.382;18.904;2022-07-06T13:30:13;3.50;;;1.95;;
58141;SDS011;53186;47.382;18.904;2022-07-06T13:32:40;4.93;;;2.60;;
58141;SDS011;53186;47.382;18.904;2022-07-06T13:35:08;5.43;;;2.17;;
58141;SDS011;53186;47.382;18.904;2022-07-06T13:37:36;3.40;;;2.03;;
58141;SDS011;53186;47.382;18.904;2022-07-06T13:40:03;6.00;;;2.10;;
58141;SDS011;53186;47.382;18.904;2022-07-06T13:42:31;6.80;;;2.10;;
58141;SDS011;53186;47.382;18.904;2022-07-06T13:44:58;6.00;;;2.40;;
58141;SDS011;53186;47.382;18.904;2022-07-06T13:47:26;3.97;;;2.28;;
58141;SDS011;53186;47.382;18.904;2022-07-06T13:49:53;6.10;;;2.37;;
58141;SDS011;53186;47.382;18.904;2022-07-06T13:52:20;4.15;;;2.22;;
58141;SDS011;53186;47.382;18.904;2022-07-06T13:54:48;7.35;;;2.62;;
58141;SDS011;53186;47.382;18.904;2022-07-06T13:57:15;6.22;;;2.40;;
58141;SDS011;53186;47.382;18.904;2022-07-06T13:59:42;5.60;;;2.42;;
58141;SDS011;53186;47.382;18.904;2022-07-06T14:02:10;2.87;;;2.20;;
58141;SDS011;53186;47.382;18.904;2022-07-06T14:04:38;4.72;;;2.53;;
58141;SDS011;53186;47.382;18.904;2022-07-06T14:07:05;6.97;;;2.03;;
58141;SDS011;53186;47.382;18.904;2022-07-06T14:09:33;5.87;;;2.53;;
58141;SDS011;53186;47.382;18.904;2022-07-06T14:12:00;3.80;;;2.28;;
58141;SDS011;53186;47.382;18.904;2022-07-06T14:14:28;2.80;;;2.50;;
58141;SDS011;53186;47.382;18.904;2022-07-06T14:16:55;4.53;;;2.30;;
58141;SDS011;53186;47.382;18.904;2022-07-06T14:19:23;4.18;;;2.30;;
58141;SDS011;53186;47.382;18.904;2022-07-06T14:21:51;4.28;;;2.30;;
58141;SDS011;53186;47.382;18.904;2022-07-06T14:24:18;5.72;;;2.28;;
58141;SDS011;53186;47.382;18.904;2022-07-06T14:26:45;2.83;;;1.92;;
58141;SDS011;53186;47.382;18.904;2022-07-06T14:29:12;6.82;;;1.80;;
58141;SDS011;53186;47.382;18.904;2022-07-06T14:31:39;3.83;;;1.65;;
58141;SDS011;53186;47.382;18.904;2022-07-06T14:34:07;5.40;;;1.90;;
58141;SDS011;53186;47.382;18.904;2022-07-06T14:36:35;3.90;;;1.70;;
58141;SDS011;53186;47.382;18.904;2022-07-06T14:39:04;5.82;;;2.00;;
58141;SDS011;53186;47.382;18.904;2022-07-06T14:41:32;6.82;;;1.95;;
58141;SDS011;53186;47.382;18.904;2022-07-06T14:43:59;5.20;;;1.65;;
58141;SDS011;53186;47.382;18.904;2022-07-06T14:46:26;6.20;;;1.75;;